12 de agosto de 2022

Hora Código Tiempo Temp. Visibilidad Cielo nuboso Viento METAR/SPECI
10:20
V
24 °C 10 km+ - 100° 100° 3 kt METAR ETND 120820Z 10003KT 9999 24/12 Q1021 BLU+
09:20
V
22 °C 10 km+ - 110° 110° 3 kt METAR ETND 120720Z 11003KT 9999 22/12 Q1021 BLU+
08:20
V
20 °C 10 km+ - 070° 070° 3 kt METAR ETND 120620Z 07003KT 9999 20/12 Q1021 BLU+
07:20
V
15 °C 10 km+ - 350° 350° 1 kt METAR ETND 120520Z 35001KT 9999 15/11 Q1021 BLU+
06:20
V
14 °C 10 km+ - 010° 010° 2 kt METAR ETND 120420Z 01002KT 9999 14/11 Q1021 BLU+
Datos más antiguos

Nosotros y terceros seguimos tu comportamiento en Internet en nuestro sitio web con cookies. Si continúas, asumimos que estás de acuerdo con nuestra política de cookies. Más información